Terminal Aerodrome Forecast
Issued by NWS Cleveland, OH

Home | Current Version | Previous Version | Text Only | Print | Product List | Glossary Off
Versions: 1 2 3 4 5 6 7 8 9 10 11 12 13 14 15 16 17 18 19 20 21 22 23 24 25 26 27

000
FTUS41 KCLE 261120
TAFYNG
TAF
KYNG 261120Z 2612/2712 12010KT P6SM OVC080
     FM261500 14012KT P6SM OVC035
     FM262100 16012KT 5SM -SHRA BR VCTS OVC025CB
      TEMPO 2621/2701 4SM -SHRA BR OVC035
     FM270300 16008KT 4SM BR SCT012 BKN025
     FM270600 16008KT 2SM BR OVC006=

USA.gov is the U.S. government's official web portal to all federal, state and local government web resources and services.